Time;durP1;ratioP1;P1;durP2;ratioP2;P2;SDS_P1;SDS_P2;PMS_P1;PMS_P2;Temp;Humidity;BMP_temperature;BMP_pressure;BME280_temperature;BME280_humidity;BME280_pressure;Samples;Min_cycle;Max_cycle;Signal;HPM_P1;HPM_P2
2023/01/23 00:01:38;;;;;;;;;;;;;;;25.01;36.43;95545.31;5010918;28;1464;-71
2023/01/23 00:04:04;;;;;;;;;;;;;;;25.02;36.63;95535.41;5002121;28;1918;-71
2023/01/23 00:06:29;;;;;;;;;;;;;;;25.03;36.70;95543.25;5014846;28;1453;-72
2023/01/23 00:08:58;;;;;;;;;;;;;;;25.04;36.67;95546.75;5008785;28;1488;-72
2023/01/23 00:11:27;;;;;;;;;;;;;;;25.03;36.92;95553.97;5023365;28;1506;-70
2023/01/23 00:13:52;;;;;;;;;;;;;;;25.03;36.96;95553.16;5011200;28;1570;-69
2023/01/23 00:16:21;;;;;;;;;;;;;;;25.05;36.77;95553.78;5002328;28;1527;-70
2023/01/23 00:18:47;;;;;;;;;;;;;;;25.05;36.82;95546.53;5006431;28;1511;-70
2023/01/23 00:21:14;;;;;;;;;;;;;;;25.05;36.95;95545.72;5009632;28;1761;-71
2023/01/23 00:23:58;;;;;;;;;;;;;;;25.05;36.77;95546.53;5020518;28;1967;-71
2023/01/23 00:26:25;;;;;;;;;;;;;;;25.04;37.04;95547.56;5004033;28;1773;-71
2023/01/23 00:28:51;;;;;;;;;;;;;;;25.06;36.96;95544.66;5008068;28;1510;-73
2023/01/23 00:31:18;;;;;;;;;;;;;;;25.08;37.10;95547.97;5009526;28;1593;-70
2023/01/23 00:33:43;;;;;;;;;;;;;;;25.06;37.26;95534.75;5014045;28;1516;-70
2023/01/23 00:36:09;;;;;;;;;;;;;;;24.98;36.99;95526.97;5023730;28;1484;-69
2023/01/23 00:38:34;;;;;;;;;;;;;;;25.08;37.24;95545.28;5003869;28;1615;-71
2023/01/23 00:41:01;;;;;;;;;;;;;;;25.07;37.09;95549.81;5011839;28;1442;-71
2023/01/23 00:43:26;;;;;;;;;;;;;;;25.08;37.15;95558.69;5005124;28;1918;-71
2023/01/23 00:45:51;;;;;;;;;;;;;;;25.09;37.08;95563.00;5024152;28;1411;-73
2023/01/23 00:48:17;;;;;;;;;;;;;;;25.10;37.27;95553.91;5003844;28;1557;-72
2023/01/23 00:50:42;;;;;;;;;;;;;;;25.10;37.30;95559.28;5004914;28;1746;-72
2023/01/23 00:53:07;;;;;;;;;;;;;;;25.11;37.19;95560.94;5009464;28;1435;-73
2023/01/23 00:55:32;;;;;;;;;;;;;;;25.11;37.45;95560.94;5010611;28;1722;-70
2023/01/23 00:57:58;;;;;;;;;;;;;;;25.12;37.14;95567.94;5002677;28;1736;-71
2023/01/23 01:00:23;;;;;;;;;;;;;;;25.12;37.36;95557.19;4997584;28;1845;-70
2023/01/23 01:02:49;;;;;;;;;;;;;;;25.11;37.38;95564.44;5006206;28;1567;-70
2023/01/23 01:05:16;;;;;;;;;;;;;;;25.13;37.11;95572.25;5015363;28;1911;-71
2023/01/23 01:07:42;;;;;;;;;;;;;;;25.12;37.49;95568.75;5008512;28;1590;-71
2023/01/23 01:10:08;;;;;;;;;;;;;;;25.11;37.23;95561.75;5005559;28;1452;-71
2023/01/23 01:12:33;;;;;;;;;;;;;;;25.12;37.42;95566.06;5004218;28;1544;-71
2023/01/23 01:14:59;;;;;;;;;;;;;;;25.12;37.14;95568.75;5020454;28;1853;-71
2023/01/23 01:17:24;;;;;;;;;;;;;;;25.12;37.41;95579.50;5000057;28;1778;-71
2023/01/23 01:19:49;;;;;;;;;;;;;;;25.13;37.29;95574.94;5006121;28;1539;-71
2023/01/23 01:22:14;;;;;;;;;;;;;;;25.13;37.33;95573.09;5013646;28;1439;-71
2023/01/23 01:24:40;;;;;;;;;;;;;;;25.15;37.24;95577.44;5003026;28;1894;-71
2023/01/23 01:27:06;;;;;;;;;;;;;;;25.15;37.25;95580.94;5028095;28;1488;-72
2023/01/23 01:29:31;;;;;;;;;;;;;;;25.16;37.47;95584.47;5008062;28;1887;-71
2023/01/23 01:31:57;;;;;;;;;;;;;;;25.17;37.29;95586.13;5009471;28;1698;-72
2023/01/23 01:34:22;;;;;;;;;;;;;;;25.16;37.49;95596.03;4996417;28;1480;-70
2023/01/23 01:36:47;;;;;;;;;;;;;;;25.15;37.61;95591.69;5002096;28;1692;-71
2023/01/23 01:39:13;;;;;;;;;;;;;;;25.15;37.57;95599.75;5003245;28;1421;-73
2023/01/23 01:41:38;;;;;;;;;;;;;;;25.16;37.52;95606.78;4996139;28;1492;-72
2023/01/23 01:44:04;;;;;;;;;;;;;;;25.17;37.58;95600.34;5007142;28;1894;-72
2023/01/23 01:46:31;;;;;;;;;;;;;;;25.18;37.41;95595.81;4993073;28;1510;-70
2023/01/23 01:49:05;;;;;;;;;;;;;;;25.17;37.39;95595.00;4995651;28;1523;-70
2023/01/23 01:51:34;;;;;;;;;;;;;;;25.17;37.60;95595.00;5009878;28;1366;-69
2023/01/23 01:54:05;;;;;;;;;;;;;;;25.17;37.43;95594.16;5006177;28;1480;-70
2023/01/23 01:56:33;;;;;;;;;;;;;;;25.18;37.50;95590.44;4974333;28;1626;-70
2023/01/23 01:58:59;;;;;;;;;;;;;;;25.17;37.58;95595.00;5014968;28;1747;-72
2023/01/23 02:01:25;;;;;;;;;;;;;;;25.18;37.50;95593.94;5025119;28;1693;-73
2023/01/23 02:03:52;;;;;;;;;;;;;;;25.23;37.75;95595.97;5008327;28;1976;-73
2023/01/23 02:06:17;;;;;;;;;;;;;;;25.24;37.85;95598.41;4999799;28;1590;-73
2023/01/23 02:08:43;;;;;;;;;;;;;;;25.26;37.90;95604.41;4983881;28;1632;-73
2023/01/23 02:11:08;;;;;;;;;;;;;;;25.30;37.62;95594.88;5008693;28;1738;-73
2023/01/23 02:13:38;;;;;;;;;;;;;;;25.30;37.80;95602.94;5003450;28;1700;-73
2023/01/23 02:16:03;;;;;;;;;;;;;;;25.31;37.50;95599.19;5001770;28;1773;-72
2023/01/23 02:18:30;;;;;;;;;;;;;;;25.33;37.66;95602.50;5001682;28;1697;-72
2023/01/23 02:20:56;;;;;;;;;;;;;;;25.33;37.46;95607.88;5007435;28;1411;-72
2023/01/23 02:23:29;;;;;;;;;;;;;;;25.32;37.56;95606.19;5009212;28;1902;-72
2023/01/23 02:25:58;;;;;;;;;;;;;;;25.34;37.31;95606.81;5009437;28;1563;-72
2023/01/23 02:28:35;;;;;;;;;;;;;;;25.33;37.42;95602.50;5007911;28;1516;-72
2023/01/23 02:31:00;;;;;;;;;;;;;;;25.35;37.63;95608.44;4998251;28;1377;-73
2023/01/23 02:33:25;;;;;;;;;;;;;;;25.37;37.38;95602.03;5008906;28;1529;-72
2023/01/23 02:35:50;;;;;;;;;;;;;;;25.38;37.45;95598.31;5024009;28;1522;-72
2023/01/23 02:38:18;;;;;;;;;;;;;;;25.35;37.40;95594.19;5019703;28;1678;-70
2023/01/23 02:40:44;;;;;;;;;;;;;;;25.33;37.55;95607.00;5014182;28;1682;-69
2023/01/23 02:43:11;;;;;;;;;;;;;;;25.33;37.38;95602.50;5012232;28;1526;-69
2023/01/23 02:45:37;;;;;;;;;;;;;;;25.34;37.62;95603.31;4994135;28;1502;-74
2023/01/23 02:48:04;;;;;;;;;;;;;;;25.37;37.54;95605.56;4999479;28;1722;-72
2023/01/23 02:50:30;;;;;;;;;;;;;;;25.37;37.46;95607.41;5023327;28;1471;-71
2023/01/23 02:52:57;;;;;;;;;;;;;;;25.41;37.65;95600.53;5008846;28;1494;-73
2023/01/23 02:55:25;;;;;;;;;;;;;;;25.43;37.75;95603.84;4997686;28;1551;-71
2023/01/23 02:57:50;;;;;;;;;;;;;;;25.45;37.69;95601.75;4992043;28;1415;-72
2023/01/23 03:00:16;;;;;;;;;;;;;;;25.46;37.44;95595.34;5019518;28;1474;-71
2023/01/23 03:02:42;;;;;;;;;;;;;;;25.47;37.69;95587.06;5006632;28;1542;-71
2023/01/23 03:05:07;;;;;;;;;;;;;;;25.48;37.43;95595.94;5004733;28;1910;-71
2023/01/23 03:07:32;;;;;;;;;;;;;;;25.49;37.63;95594.88;4994190;28;1604;-72
2023/01/23 03:09:58;;;;;;;;;;;;;;;25.53;37.67;95585.34;5007015;28;1602;-72
2023/01/23 03:12:23;;;;;;;;;;;;;;;25.51;37.64;95590.13;5012177;28;1462;-67
2023/01/23 03:14:53;;;;;;;;;;;;;;;25.47;37.44;95587.06;5004884;28;1590;-68
2023/01/23 03:17:18;;;;;;;;;;;;;;;25.42;37.51;95583.41;4989470;28;1767;-68
2023/01/23 03:19:43;;;;;;;;;;;;;;;25.39;37.57;95594.56;5006126;28;1395;-67
2023/01/23 03:22:09;;;;;;;;;;;;;;;25.40;37.42;95597.03;5008494;28;1439;-71
2023/01/23 03:24:34;;;;;;;;;;;;;;;25.41;37.38;95598.69;5010656;28;1967;-71
2023/01/23 03:26:59;;;;;;;;;;;;;;;25.41;37.29;95593.31;4987932;28;1509;-71
2023/01/23 03:32:10;;;;;;;;;;;;;;;25.40;37.49;95580.13;4996625;28;1719;-70
2023/01/23 03:34:35;;;;;;;;;;;;;;;25.40;37.32;95580.13;5011058;28;1761;-71
2023/01/23 03:37:02;;;;;;;;;;;;;;;25.40;37.49;95580.13;5010718;28;1756;-71
2023/01/23 03:42:11;;;;;;;;;;;;;;;25.38;37.30;95585.69;5013800;28;1308;-70
2023/01/23 03:44:36;;;;;;;;;;;;;;;25.38;37.25;95584.88;5012933;28;1944;-70
2023/01/23 03:47:02;;;;;;;;;;;;;;;25.37;37.31;95583.25;5011656;28;1640;-69
2023/01/23 03:49:28;;;;;;;;;;;;;;;25.38;37.63;95587.56;5006836;28;1748;-70
2023/01/23 03:51:53;;;;;;;;;;;;;;;25.38;37.59;95596.44;5019825;28;1384;-68
2023/01/23 03:54:18;;;;;;;;;;;;;;;25.38;37.44;95598.31;5003354;28;1405;-69
2023/01/23 03:56:43;;;;;;;;;;;;;;;25.39;37.60;95599.94;5003276;28;1500;-68
2023/01/23 03:59:09;;;;;;;;;;;;;;;25.37;37.35;95597.50;5005161;28;1445;-69
2023/01/23 04:01:35;;;;;;;;;;;;;;;25.38;37.55;95603.69;4994394;28;1494;-69
2023/01/23 04:04:01;;;;;;;;;;;;;;;25.41;37.80;95609.41;4999014;28;1906;-69
2023/01/23 04:06:27;;;;;;;;;;;;;;;25.41;37.42;95609.41;5024821;28;1680;-71
2023/01/23 04:08:53;;;;;;;;;;;;;;;25.42;37.42;95623.69;5005395;28;1400;-72
2023/01/23 04:11:18;;;;;;;;;;;;;;;25.35;37.30;95616.50;5024530;28;1697;-73
2023/01/23 04:13:45;;;;;;;;;;;;;;;24.62;33.63;95621.59;4988541;28;1763;-71
2023/01/23 04:16:11;;;;;;;;;;;;;;;23.38;33.71;95615.41;5008490;28;1461;-72
2023/01/23 04:18:36;;;;;;;;;;;;;;;22.71;34.61;95629.78;5002837;28;1578;-72
2023/01/23 04:21:01;;;;;;;;;;;;;;;22.37;34.93;95635.09;4996111;28;1439;-72
2023/01/23 04:23:27;;;;;;;;;;;;;;;22.20;34.90;95629.28;4990690;28;1971;-72
2023/01/23 04:25:52;;;;;;;;;;;;;;;21.94;34.99;95634.47;5003172;28;1615;-72
2023/01/23 04:28:18;;;;;;;;;;;;;;;21.78;34.21;95631.09;5004830;28;1806;-69
2023/01/23 04:30:44;;;;;;;;;;;;;;;21.66;34.56;95632.69;5005281;28;1695;-69
2023/01/23 04:33:09;;;;;;;;;;;;;;;21.64;34.29;95634.72;5006578;28;1300;-68
2023/01/23 04:35:35;;;;;;;;;;;;;;;21.60;33.74;95637.97;5002939;28;1533;-69
2023/01/23 04:38:00;;;;;;;;;;;;;;;21.50;34.46;95641.00;5002888;28;1423;-67
2023/01/23 04:40:25;;;;;;;;;;;;;;;21.45;34.87;95640.78;5006398;28;1454;-68
2023/01/23 04:42:51;;;;;;;;;;;;;;;21.19;34.37;95641.38;5013293;28;1532;-68
2023/01/23 04:45:16;;;;;;;;;;;;;;;20.76;34.69;95644.91;5019411;28;1958;-68
2023/01/23 04:47:41;;;;;;;;;;;;;;;20.86;35.80;95645.44;5012884;28;1475;-71
2023/01/23 04:50:07;;;;;;;;;;;;;;;21.71;35.30;95640.91;4998151;28;1588;-71
2023/01/23 04:52:32;;;;;;;;;;;;;;;21.81;33.61;95640.56;4993117;28;1474;-71
2023/01/23 04:54:57;;;;;;;;;;;;;;;22.09;34.36;95626.31;4998303;28;1425;-72
2023/01/23 04:57:23;;;;;;;;;;;;;;;22.58;34.22;95636.75;4994176;28;1547;-72
2023/01/23 04:59:48;;;;;;;;;;;;;;;22.88;34.27;95629.22;4986094;28;1361;-70
2023/01/23 05:02:13;;;;;;;;;;;;;;;23.18;34.13;95625.31;4993931;28;1507;-71
2023/01/23 05:04:38;;;;;;;;;;;;;;;23.47;34.40;95645.47;4993901;28;1975;-70
2023/01/23 05:07:04;;;;;;;;;;;;;;;22.89;34.33;95648.75;5008680;28;1421;-70
2023/01/23 05:09:29;;;;;;;;;;;;;;;22.48;35.01;95655.03;4986379;28;1426;-71
2023/01/23 05:11:54;;;;;;;;;;;;;;;22.22;35.66;95640.56;5001675;28;1418;-71
2023/01/23 05:14:22;;;;;;;;;;;;;;;22.61;35.90;95635.53;4998005;28;1511;-71
2023/01/23 05:16:47;;;;;;;;;;;;;;;23.02;35.87;95651.44;4993050;28;1426;-71
2023/01/23 05:19:13;;;;;;;;;;;;;;;23.25;35.80;95647.53;4992779;28;1416;-71
2023/01/23 05:21:38;;;;;;;;;;;;;;;23.41;35.52;95652.47;4985084;28;1084;-71
2023/01/23 05:24:03;;;;;;;;;;;;;;;23.51;35.43;95660.94;5009153;28;1953;-71
2023/01/23 05:26:29;;;;;;;;;;;;;;;23.60;35.40;95660.72;5009266;28;1184;-71
2023/01/23 05:28:54;;;;;;;;;;;;;;;23.67;35.24;95656.97;4994133;28;1190;-72
2023/01/23 05:31:19;;;;;;;;;;;;;;;23.73;35.22;95660.69;4993886;28;1046;-72
2023/01/23 05:33:44;;;;;;;;;;;;;;;23.77;35.21;95654.72;4984590;28;1037;-72
2023/01/23 05:36:10;;;;;;;;;;;;;;;23.83;35.15;95653.06;4994006;28;797;-71
2023/01/23 05:38:35;;;;;;;;;;;;;;;23.85;35.24;95656.38;4994011;28;789;-71
2023/01/23 05:41:01;;;;;;;;;;;;;;;23.89;34.91;95659.44;4993952;28;856;-71
2023/01/23 05:43:26;;;;;;;;;;;;;;;23.92;34.92;95665.19;4988708;28;1906;-71
2023/01/23 05:45:51;;;;;;;;;;;;;;;23.96;35.04;95662.91;4990172;28;1180;-71
2023/01/23 05:48:16;;;;;;;;;;;;;;;23.97;35.03;95668.06;4994349;28;928;-71
2023/01/23 05:50:42;;;;;;;;;;;;;;;24.01;34.78;95673.81;4993398;28;856;-71
2023/01/23 05:53:07;;;;;;;;;;;;;;;24.04;34.72;95680.63;4993805;28;869;-72
2023/01/23 05:55:32;;;;;;;;;;;;;;;24.06;34.78;95682.06;4984667;28;1142;-71
2023/01/23 05:57:57;;;;;;;;;;;;;;;24.08;34.66;95693.41;5008777;28;1317;-72
2023/01/23 06:00:23;;;;;;;;;;;;;;;24.11;34.64;95689.47;4994053;28;856;-71
2023/01/23 06:02:48;;;;;;;;;;;;;;;24.13;34.85;95696.25;5008787;28;1352;-72
2023/01/23 06:05:13;;;;;;;;;;;;;;;24.13;34.52;95703.47;4994064;28;1968;-72
2023/01/23 06:07:38;;;;;;;;;;;;;;;24.15;34.71;95699.56;4984212;28;1058;-72
2023/01/23 06:10:04;;;;;;;;;;;;;;;24.13;34.68;95708.84;5009066;28;1266;-72
2023/01/23 06:12:30;;;;;;;;;;;;;;;24.15;34.61;95706.78;5009033;28;1276;-72
2023/01/23 06:14:55;;;;;;;;;;;;;;;24.17;34.52;95712.75;4994044;28;817;-72
2023/01/23 06:17:20;;;;;;;;;;;;;;;24.18;34.50;95717.06;5003831;28;1223;-70
2023/01/23 06:19:46;;;;;;;;;;;;;;;24.15;34.44;95722.84;4989013;28;1062;-72
2023/01/23 06:22:11;;;;;;;;;;;;;;;24.15;34.65;95712.97;4993617;28;868;-72
2023/01/23 06:24:37;;;;;;;;;;;;;;;24.18;34.64;95733.16;4993784;28;1898;-73
2023/01/23 06:27:06;;;;;;;;;;;;;;;24.20;34.66;95731.09;5008628;28;1165;-73
2023/01/23 06:29:32;;;;;;;;;;;;;;;24.20;34.38;95739.16;4998979;28;1311;-71
2023/01/23 06:31:57;;;;;;;;;;;;;;;24.24;34.58;95732.31;4993402;28;902;-71
2023/01/23 06:34:22;;;;;;;;;;;;;;;24.26;34.68;95742.84;4993355;28;868;-71
2023/01/23 06:36:48;;;;;;;;;;;;;;;24.29;34.31;95739.75;5008392;28;1310;-71
2023/01/23 06:39:14;;;;;;;;;;;;;;;24.30;34.26;95744.06;4993511;28;829;-73
2023/01/23 06:41:39;;;;;;;;;;;;;;;24.32;34.25;95750.84;4983924;28;1186;-70
2023/01/23 06:44:05;;;;;;;;;;;;;;;24.33;34.04;95751.69;4993411;28;1958;-72
2023/01/23 06:46:30;;;;;;;;;;;;;;;24.34;34.15;95745.28;4993286;28;852;-72
2023/01/23 06:48:55;;;;;;;;;;;;;;;24.36;34.19;95752.09;4993358;28;774;-77
2023/01/23 06:51:21;;;;;;;;;;;;;;;24.36;34.25;95752.09;5004074;28;1284;-72
2023/01/23 06:53:46;;;;;;;;;;;;;;;24.36;34.08;95757.47;4988643;28;1112;-71
2023/01/23 06:56:11;;;;;;;;;;;;;;;24.38;34.20;95757.22;4993234;28;908;-73
2023/01/23 06:58:37;;;;;;;;;;;;;;;24.38;34.19;95766.09;4993246;28;939;-72
2023/01/23 07:01:10;;;;;;;;;;;;;;;24.40;34.17;95769.41;5007789;28;1291;-71
2023/01/23 07:03:35;;;;;;;;;;;;;;;24.40;34.24;95769.41;4986069;28;1891;-71
2023/01/23 07:06:02;;;;;;;;;;;;;;;24.40;33.96;95773.94;5011871;28;1361;-71
2023/01/23 07:08:27;;;;;;;;;;;;;;;24.43;34.05;95777.06;4997547;28;856;-70
2023/01/23 07:10:52;;;;;;;;;;;;;;;24.43;33.93;95776.22;4996687;28;877;-72
2023/01/23 07:13:18;;;;;;;;;;;;;;;24.44;33.97;95791.28;5012356;28;1202;-71
2023/01/23 07:15:45;;;;;;;;;;;;;;;24.44;33.95;95788.59;4987306;28;1110;-72
2023/01/23 07:18:10;;;;;;;;;;;;;;;24.44;33.90;95796.66;4997008;28;821;-72
2023/01/23 07:20:37;;;;;;;;;;;;;;;24.45;34.07;95796.44;4996523;28;855;-71
2023/01/23 07:23:02;;;;;;;;;;;;;;;24.46;33.82;95794.59;4996648;28;774;-72
2023/01/23 07:25:27;;;;;;;;;;;;;;;24.46;33.78;95798.09;5007026;28;1910;-72
2023/01/23 07:27:53;;;;;;;;;;;;;;;24.47;33.81;95804.28;4991384;28;1273;-72
2023/01/23 07:30:18;;;;;;;;;;;;;;;24.48;34.00;95811.31;5011450;28;1185;-72
2023/01/23 07:32:43;;;;;;;;;;;;;;;24.46;34.15;95811.50;5011570;28;1320;-72
2023/01/23 07:35:09;;;;;;;;;;;;;;;24.49;33.73;95820.16;4996263;28;798;-72
2023/01/23 07:37:34;;;;;;;;;;;;;;;24.49;33.82;95814.81;4986565;28;1087;-72
2023/01/23 07:40:00;;;;;;;;;;;;;;;24.50;33.75;95828.00;5011220;28;1340;-71
2023/01/23 07:42:25;;;;;;;;;;;;;;;24.50;33.73;95833.34;4996184;28;855;-72
2023/01/23 07:44:50;;;;;;;;;;;;;;;24.51;33.75;95823.47;5010722;28;1906;-72
2023/01/23 07:47:16;;;;;;;;;;;;;;;24.51;33.61;95821.59;4996131;28;911;-72
2023/01/23 07:49:41;;;;;;;;;;;;;;;24.51;33.67;95828.84;4986530;28;1122;-72
2023/01/23 07:52:06;;;;;;;;;;;;;;;24.52;33.76;95830.47;4996053;28;913;-72
2023/01/23 07:54:32;;;;;;;;;;;;;;;24.52;33.62;95835.84;5011056;28;1212;-73
2023/01/23 07:56:57;;;;;;;;;;;;;;;24.52;33.93;95830.47;5011029;28;1303;-73
2023/01/23 07:59:22;;;;;;;;;;;;;;;24.52;33.60;95835.84;5006675;28;1292;-72
2023/01/23 08:01:49;;;;;;;;;;;;;;;24.53;33.63;95832.13;5005569;28;1162;-72
2023/01/23 08:04:15;;;;;;;;;;;;;;;24.54;33.48;95841.81;5010804;28;1910;-71
2023/01/23 08:06:40;;;;;;;;;;;;;;;24.54;33.48;95834.59;4995939;28;801;-71
2023/01/23 08:09:05;;;;;;;;;;;;;;;24.55;33.56;95838.09;4995632;28;979;-71
2023/01/23 08:11:31;;;;;;;;;;;;;;;24.53;33.58;95843.66;4986378;28;1001;-71
2023/01/23 08:13:56;;;;;;;;;;;;;;;24.55;33.62;95851.50;4994998;28;1221;-71
2023/01/23 08:16:21;;;;;;;;;;;;;;;24.54;33.47;95836.47;4995726;28;924;-71
2023/01/23 08:18:46;;;;;;;;;;;;;;;24.55;33.70;95836.25;4995758;28;858;-71
2023/01/23 08:21:12;;;;;;;;;;;;;;;24.55;33.51;95840.78;4995717;28;869;-71
2023/01/23 08:23:37;;;;;;;;;;;;;;;24.56;33.67;95853.16;4985640;28;1969;-71
2023/01/23 08:26:04;;;;;;;;;;;;;;;24.56;33.47;95859.38;4995257;28;923;-72
2023/01/23 08:28:29;;;;;;;;;;;;;;;24.57;33.25;95862.88;5004061;28;1420;-72
2023/01/23 08:30:58;;;;;;;;;;;;;;;24.56;33.57;95862.03;4995126;28;1164;-72
2023/01/23 08:33:23;;;;;;;;;;;;;;;24.56;33.45;95850.47;4990879;28;1066;-71
2023/01/23 08:35:49;;;;;;;;;;;;;;;24.58;33.48;95869.88;4990214;28;1187;-72
2023/01/23 08:38:16;;;;;;;;;;;;;;;24.60;33.21;95873.19;4995155;28;868;-72
2023/01/23 08:40:41;;;;;;;;;;;;;;;24.58;33.42;95868.00;4995057;28;845;-71
2023/01/23 08:43:09;;;;;;;;;;;;;;;24.58;33.42;95867.19;4995041;28;931;-72
2023/01/23 08:45:34;;;;;;;;;;;;;;;24.60;33.39;95859.75;4985548;28;1961;-72
2023/01/23 08:48:01;;;;;;;;;;;;;;;24.59;33.53;95868.81;4995121;28;1116;-71
2023/01/23 08:50:27;;;;;;;;;;;;;;;24.59;33.36;95860.78;4995002;28;921;-72
2023/01/23 08:52:53;;;;;;;;;;;;;;;24.60;33.33;95865.13;5009908;28;1188;-72
2023/01/23 08:55:18;;;;;;;;;;;;;;;24.59;33.36;95866.16;4994820;28;937;-71
2023/01/23 08:57:43;;;;;;;;;;;;;;;24.60;33.38;95875.84;4985107;28;1128;-72
2023/01/23 09:00:09;;;;;;;;;;;;;;;24.61;33.33;95874.81;5009717;28;1181;-72
2023/01/23 09:02:34;;;;;;;;;;;;;;;24.60;33.51;95876.69;4994568;28;1250;-71
2023/01/23 09:05:00;;;;;;;;;;;;;;;24.61;33.45;95877.50;4994686;28;1914;-72
2023/01/23 09:07:25;;;;;;;;;;;;;;;24.61;33.24;95881.00;5005044;28;1296;-71
2023/01/23 09:09:50;;;;;;;;;;;;;;;24.60;33.32;95865.94;5004916;28;1327;-71
2023/01/23 09:12:15;;;;;;;;;;;;;;;24.60;33.32;95870.50;4994745;28;790;-71
2023/01/23 09:14:41;;;;;;;;;;;;;;;24.60;33.19;95871.31;5009530;28;1435;-72
2023/01/23 09:17:06;;;;;;;;;;;;;;;24.60;33.15;95870.50;4994726;28;860;-71
2023/01/23 09:19:31;;;;;;;;;;;;;;;24.60;33.35;95871.31;5000971;28;1295;-72
2023/01/23 09:21:57;;;;;;;;;;;;;;;24.61;33.09;95875.63;4995418;28;1177;-72
2023/01/23 09:24:22;;;;;;;;;;;;;;;24.62;33.11;95881.84;4994256;28;1960;-73
2023/01/23 09:26:47;;;;;;;;;;;;;;;24.61;33.12;95878.31;4994328;28;919;-72
2023/01/23 09:29:13;;;;;;;;;;;;;;;24.62;32.99;95884.53;4994147;28;1267;-71
2023/01/23 09:31:38;;;;;;;;;;;;;;;24.62;33.25;95881.84;4984479;28;1177;-72
2023/01/23 09:34:03;;;;;;;;;;;;;;;24.63;33.16;95878.13;4994170;28;873;-72
2023/01/23 09:36:29;;;;;;;;;;;;;;;24.62;33.15;95879.97;4994398;28;841;-71
2023/01/23 09:38:54;;;;;;;;;;;;;;;24.61;33.10;95870.28;4994049;28;891;-71
2023/01/23 09:41:22;;;;;;;;;;;;;;;24.62;33.10;95877.31;4993148;28;871;-71
2023/01/23 09:43:52;;;;;;;;;;;;;;;24.63;33.04;95870.88;4986109;28;1961;-72
2023/01/23 09:46:25;;;;;;;;;;;;;;;24.63;33.10;95862.03;4993881;28;867;-72
2023/01/23 09:49:16;;;;;;;;;;;;;;;24.63;33.01;95864.69;4993892;28;878;-71
2023/01/23 09:51:41;;;;;;;;;;;;;;;24.64;33.22;95869.03;4992467;28;1073;-71
2023/01/23 09:54:24;;;;;;;;;;;;;;;24.63;33.02;95853.97;4984013;28;1164;-71
2023/01/23 09:56:50;;;;;;;;;;;;;;;24.63;32.97;95854.78;4993815;28;797;-72
2023/01/23 09:59:34;;;;;;;;;;;;;;;24.62;33.02;95852.34;5008767;28;1216;-72
2023/01/23 10:01:59;;;;;;;;;;;;;;;24.62;33.03;95853.16;4994057;28;798;-72
2023/01/23 10:04:24;;;;;;;;;;;;;;;24.63;33.12;95848.59;4988918;28;1902;-70
2023/01/23 10:06:50;;;;;;;;;;;;;;;24.63;33.23;95843.25;4988734;28;1150;-71
2023/01/23 10:09:34;;;;;;;;;;;;;;;24.62;33.23;95847.78;5008505;28;1188;-71
2023/01/23 10:12:05;;;;;;;;;;;;;;;24.63;33.02;95853.97;4994033;28;905;-72
2023/01/23 10:14:36;;;;;;;;;;;;;;;24.62;33.13;95847.78;5008595;28;1294;-72
2023/01/23 10:17:06;;;;;;;;;;;;;;;24.62;32.97;95846.97;4984063;28;1115;-72
2023/01/23 10:19:31;;;;;;;;;;;;;;;24.61;33.03;95840.75;5009322;28;1223;-72
2023/01/23 10:22:02;;;;;;;;;;;;;;;24.63;33.16;95849.44;5008720;28;1207;-72
2023/01/23 10:24:38;;;;;;;;;;;;;;;24.64;33.00;95855.59;4994064;28;1981;-72
2023/01/23 10:27:13;;;;;;;;;;;;;;;24.63;33.19;95844.06;4989691;28;1223;-70
2023/01/23 10:29:41;;;;;;;;;;;;;;;24.64;33.02;95844.88;4988099;28;1321;-71
2023/01/23 10:32:24;;;;;;;;;;;;;;;24.64;32.93;95850.25;5009333;28;1306;-71
2023/01/23 10:34:55;;;;;;;;;;;;;;;24.62;32.97;95842.41;4993963;28;856;-71
2023/01/23 10:37:41;;;;;;;;;;;;;;;24.63;32.95;95840.56;5010771;28;1133;-68
2023/01/23 10:40:07;;;;;;;;;;;;;;;24.64;32.92;95851.06;5002656;28;1264;-71
2023/01/23 10:42:32;;;;;;;;;;;;;;;24.63;32.94;95844.06;4996027;28;1345;-71
2023/01/23 10:44:57;;;;;;;;;;;;;;;24.63;33.05;95844.06;5012123;28;1890;-71
2023/01/23 10:47:26;;;;;;;;;;;;;;;24.65;32.92;95838.50;4997118;28;896;-71
2023/01/23 10:49:51;;;;;;;;;;;;;;;24.64;32.74;95839.50;4992926;28;1044;-72
2023/01/23 10:52:35;;;;;;;;;;;;;;;24.65;32.92;95841.19;5007304;28;1292;-72
2023/01/23 10:55:01;;;;;;;;;;;;;;;24.63;32.90;95843.25;4996161;28;1230;-73
2023/01/23 10:57:33;;;;;;;;;;;;;;;24.63;32.91;95832.50;4997350;28;868;-73
2023/01/23 11:00:07;;;;;;;;;;;;;;;24.63;32.90;95849.44;4997003;28;915;-72
2023/01/23 11:02:32;;;;;;;;;;;;;;;24.63;33.03;95837.88;4987190;28;1258;-72
2023/01/23 11:04:58;;;;;;;;;;;;;;;24.62;33.00;95831.69;4997144;28;1985;-72
2023/01/23 11:07:27;;;;;;;;;;;;;;;24.62;32.74;95834.38;4997146;28;856;-72
2023/01/23 11:09:55;;;;;;;;;;;;;;;24.63;33.03;95843.25;5012031;28;1326;-72
2023/01/23 11:12:24;;;;;;;;;;;;;;;24.62;33.02;95830.88;4993118;28;1187;-72
2023/01/23 11:14:51;;;;;;;;;;;;;;;24.63;32.99;95844.06;4991526;28;1190;-71
2023/01/23 11:17:18;;;;;;;;;;;;;;;24.64;32.90;95844.88;4996506;28;798;-70
2023/01/23 11:19:44;;;;;;;;;;;;;;;24.63;33.12;95849.44;4996469;28;949;-71
2023/01/23 11:22:36;;;;;;;;;;;;;;;24.64;33.03;95845.69;4996626;28;876;-71
2023/01/23 11:25:22;;;;;;;;;;;;;;;24.64;32.77;95845.69;4985544;28;1907;-71
2023/01/23 11:27:55;;;;;;;;;;;;;;;24.64;32.92;95844.88;5011200;28;1264;-71
2023/01/23 11:30:20;;;;;;;;;;;;;;;24.63;32.92;95838.69;5011481;28;1202;-71
2023/01/23 11:32:48;;;;;;;;;;;;;;;24.63;32.67;95836.00;4996328;28;785;-72
2023/01/23 11:35:15;;;;;;;;;;;;;;;24.63;32.54;95840.56;4991853;28;1049;-72
2023/01/23 11:37:41;;;;;;;;;;;;;;;24.62;32.70;95838.91;5006133;28;1160;-71
2023/01/23 11:40:10;;;;;;;;;;;;;;;24.64;32.75;95836.84;4996070;28;878;-71
2023/01/23 11:42:38;;;;;;;;;;;;;;;24.65;32.74;95841.19;4996047;28;902;-72
2023/01/23 11:45:11;;;;;;;;;;;;;;;24.65;32.90;95841.19;4996029;28;1898;-71
2023/01/23 11:47:37;;;;;;;;;;;;;;;24.64;32.73;95843.00;4986387;28;1035;-71
2023/01/23 11:50:14;;;;;;;;;;;;;;;24.63;32.83;95837.88;4995637;28;805;-71
2023/01/23 11:52:39;;;;;;;;;;;;;;;24.64;32.75;95850.25;4996030;28;881;-72
2023/01/23 11:55:05;;;;;;;;;;;;;;;24.63;33.02;95845.94;4996037;28;848;-72
2023/01/23 11:57:49;;;;;;;;;;;;;;;24.63;32.74;95840.56;4995901;28;861;-71
2023/01/23 12:00:20;;;;;;;;;;;;;;;24.62;32.68;95845.09;4990756;28;1045;-71
2023/01/23 12:03:04;;;;;;;;;;;;;;;24.62;32.72;95853.16;4995586;28;1393;-71
2023/01/23 12:05:39;;;;;;;;;;;;;;;24.62;32.65;95842.41;5010662;28;1971;-71
2023/01/23 12:08:13;;;;;;;;;;;;;;;24.63;32.96;95848.59;5010614;28;1415;-72
2023/01/23 12:10:38;;;;;;;;;;;;;;;24.62;32.71;95836.25;4986332;28;1042;-72
2023/01/23 12:13:13;;;;;;;;;;;;;;;24.63;32.72;95833.31;5010685;28;1310;-72
2023/01/23 12:15:57;;;;;;;;;;;;;;;24.63;32.64;95833.31;4995689;28;919;-72
2023/01/23 12:18:22;;;;;;;;;;;;;;;24.61;32.71;95829.22;4995690;28;869;-72
2023/01/23 12:20:48;;;;;;;;;;;;;;;24.63;32.67;95840.56;4991063;28;1022;-71
2023/01/23 12:23:13;;;;;;;;;;;;;;;24.63;32.75;95843.25;4990436;28;1341;-72
2023/01/23 12:25:40;;;;;;;;;;;;;;;24.63;32.85;95841.38;4995696;28;1973;-72
2023/01/23 12:28:17;;;;;;;;;;;;;;;24.63;32.78;95848.59;4995352;28;1220;-72
2023/01/23 12:30:42;;;;;;;;;;;;;;;24.63;32.85;95849.44;4995613;28;877;-70
2023/01/23 12:33:16;;;;;;;;;;;;;;;24.63;32.87;95843.25;5000144;28;1181;-70
2023/01/23 12:35:54;;;;;;;;;;;;;;;24.63;32.47;95837.88;5010115;28;1350;-71
2023/01/23 12:38:22;;;;;;;;;;;;;;;24.63;32.72;95844.06;4995057;28;905;-72
2023/01/23 12:40:50;;;;;;;;;;;;;;;24.63;32.60;95849.44;4995163;28;900;-71
2023/01/23 12:43:20;;;;;;;;;;;;;;;24.62;32.60;95847.78;4990654;28;1195;-71
2023/01/23 12:46:12;;;;;;;;;;;;;;;24.61;32.58;95845.31;4989801;28;1973;-71
2023/01/23 12:49:09;;;;;;;;;;;;;;;24.61;32.88;95847.97;4985949;28;1454;-71
2023/01/23 12:51:40;;;;;;;;;;;;;;;24.62;32.70;95846.97;4983177;28;1239;-71
2023/01/23 12:54:11;;;;;;;;;;;;;;;24.60;32.58;95849.84;4994801;28;932;-71
2023/01/23 12:56:38;;;;;;;;;;;;;;;24.61;32.74;95846.13;4985279;28;1028;-70
2023/01/23 12:59:07;;;;;;;;;;;;;;;24.64;32.58;95850.25;4994616;28;960;-71
2023/01/23 13:01:41;;;;;;;;;;;;;;;24.62;32.66;95849.66;4994933;28;868;-71
2023/01/23 13:04:09;;;;;;;;;;;;;;;24.62;32.63;95852.34;4994364;28;1969;-71
2023/01/23 13:06:56;;;;;;;;;;;;;;;24.61;32.75;95850.66;4986759;28;1073;-72